Flight Track Log - Related Links

Times and Time Zones

All times are in EDT time to prevent confusion due to time zone crossing. See the N2201 flight status page for this flight to view local times or setup timezone preferences in your user account.

Time Position Orientation Groundspeed Altitude Reporting Facility
EDT Latitude Longitude Course Direction KTS MPH feet Rate Location/Type
Mon 04:30:16 PM 42.7611 -73.8089 336° Northwest 85 98 800  Level Boston Center
Mon 04:30:59 PM 42.7756 -73.8175 336° Northwest 88 101 1,400 655 Climbing Boston Center
Mon 04:32:06 PM 42.7564 -73.8397 220° Southwest 113 130 2,000 545 Climbing Boston Center
Mon 04:33:00 PM 42.7292 -73.8589 207° Southwest 116 133 2,500 522 Climbing Boston Center
Mon 04:34:01 PM 42.7019 -73.8753 204° Southwest 111 128 3,000 492 Climbing Boston Center
Mon 04:35:02 PM 42.6725 -73.8944 206° Southwest 112 129 3,500 496 Climbing Boston Center
Mon 04:36:02 PM 42.6472 -73.9164 213° Southwest 111 128 4,000 574 Climbing Boston Center
Mon 04:36:57 PM 42.6219 -73.9297 201° Southwest 105 121 4,600 590 Climbing Boston Center
Mon 04:38:04 PM 42.5947 -73.9489 207° Southwest 99 114 5,200 496 Climbing Boston Center
Mon 04:39:10 PM 42.5653 -73.9653 202° Southwest 105 121 5,700 472 Climbing Boston Center
Mon 04:40:11 PM 42.5378 -73.9869 210° Southwest 112 129 6,200 446 Climbing Boston Center
Mon 04:41:11 PM 42.5083 -74.0031 202° Southwest 115 132 6,600 446 Climbing Boston Center
Mon 04:42:12 PM 42.4769 -74.0250 207° Southwest 116 133 7,100 446 Climbing Boston Center
Mon 04:43:12 PM 42.4494 -74.0439 207° Southwest 116 133 7,500 410 Climbing Boston Center
Mon 04:44:09 PM 42.4222 -74.0628 207° Southwest 115 132 7,900 176 Climbing Boston Center
Mon 04:46:02 PM 42.3592 -74.1033 205° Southwest 143 165 8,000 34 Climbing Boston Center
Mon 04:47:03 PM 42.3211 -74.1278 205° Southwest 153 176 8,000  Level Boston Center
Mon 04:48:03 PM 42.2853 -74.1492 204° Southwest 162 186 8,000  Level Boston Center
Mon 04:49:03 PM 42.2475 -74.1761 208° Southwest 157 181 8,000  Level Boston Center
Mon 04:50:01 PM 42.2117 -74.2006 207° Southwest 151 174 8,000  Level Boston Center
Mon 04:51:01 PM 42.1758 -74.2275 209° Southwest 151 174 8,000  Level Boston Center
Mon 04:52:02 PM 42.1400 -74.2544 209° Southwest 158 182 8,000  Level Boston Center
Mon 04:53:03 PM 42.1000 -74.2814 207° Southwest 158 182 8,000  Level Boston Center
Mon 04:54:03 PM 42.0661 -74.3083 211° Southwest 158 182 8,000  Level Boston Center
Mon 04:55:03 PM 42.0303 -74.3350 209° Southwest 158 182 8,000  Level Boston Center
Mon 04:56:03 PM 41.9922 -74.3592 205° Southwest 158 182 8,000  Level Boston Center
Mon 04:57:01 PM 41.9586 -74.3861 211° Southwest 158 182 8,000  Level Boston Center
Mon 04:58:01 PM 41.9183 -74.4128 206° Southwest 158 182 8,000  Level Boston Center
Mon 04:59:02 PM 41.8847 -74.4367 208° Southwest 158 182 8,000  Level Boston Center
Mon 05:00:03 PM 41.8467 -74.4661 210° Southwest 158 182 8,000  Level Boston Center
Mon 05:02:01 PM 41.7747 -74.5167 208° Southwest 158 182 8,000  Level Boston Center
Mon 05:03:01 PM 41.7392 -74.5294 195° South 153 176 8,000  Level Boston Center
Mon 05:04:02 PM 41.6911 -74.5392 189° South 153 176 8,000  Level Boston Center
Mon 05:05:02 PM 41.6533 -74.5489 191° South 153 176 8,000 -446 Level Boston Center
Mon 05:06:03 PM 41.6031 -74.5583 188° South 165 190 7,100 -655 Descending Boston Center
Mon 05:07:01 PM 41.5592 -74.5653 187° South 171 197 6,700 -504 Descending Boston Center
Mon 05:08:02 PM 41.5050 -74.5744 187° South 178 205 6,100 -240 Descending Boston Center
Mon 05:09:56 PM 41.4167 -74.6000 192° South 160 184 6,000 -34 Descending New York TRACON
Mon 05:10:56 PM 41.3833 -74.6000 180° South 156 180 6,000  Level New York TRACON
Mon 05:11:56 PM 41.3333 -74.6167 194° South 155 178 6,000  Level New York TRACON
Mon 05:12:56 PM 41.3000 -74.6167 180° South 154 177 6,000  Level New York TRACON
Mon 05:13:56 PM 41.2667 -74.5833 143° Southeast 152 175 6,000 -100 Level New York TRACON
Mon 05:14:56 PM 41.2167 -74.5667 166° South 157 181 5,800 -350 Descending New York TRACON
Mon 05:15:56 PM 41.1833 -74.5500 159° South 167 192 5,300 -700 Descending New York TRACON
Mon 05:16:56 PM 41.1333 -74.5167 153° Southeast 178 205 4,400 -800 Descending New York TRACON
Mon 05:17:56 PM 41.0833 -74.5000 166° South 165 190 3,700 -650 Descending New York TRACON
Mon 05:18:56 PM 41.0500 -74.4667 143° Southeast 156 180 3,100 -350 Descending New York TRACON
Mon 05:19:56 PM 41.0167 -74.4500 159° South 150 173 3,000 -50 Descending New York TRACON
Mon 05:20:56 PM 40.9667 -74.4333 166° South 150 173 3,000  Level New York TRACON
Mon 05:22:02 PM 40.9333 -74.4167 159° South 150 173 3,000  Level New York TRACON
Mon 05:23:02 PM 40.8833 -74.4000 166° South 146 168 3,000  Level New York TRACON
Mon 05:24:02 PM 40.8500 -74.3833 159° South 143 165 3,000  Level New York TRACON
Mon 05:24:56 PM 40.8167 -74.3667 159° South 141 162 3,000  Level New York TRACON

Login

Don't have an account? Register now (free) for customized features, flight alerts, and more!